createdAt,value
2019-02-27T00:00:54.603Z,6.91
2019-02-27T00:03:22.688Z,6.65
2019-02-27T00:05:50.855Z,6.73
2019-02-27T00:08:18.775Z,6.84
2019-02-27T00:10:46.947Z,6.79
2019-02-27T00:13:14.939Z,6.83
2019-02-27T00:15:42.910Z,6.77
2019-02-27T00:18:10.929Z,6.73
2019-02-27T00:20:38.956Z,6.54
2019-02-27T00:23:07.080Z,6.56
2019-02-27T00:25:36.211Z,6.37
2019-02-27T00:28:05.071Z,6.37
2019-02-27T00:30:33.106Z,6.46
2019-02-27T00:33:01.169Z,6.42
2019-02-27T00:35:29.109Z,6.41
2019-02-27T00:37:57.268Z,6.45
2019-02-27T00:40:25.338Z,6.35
2019-02-27T00:42:54.341Z,6.26
2019-02-27T00:45:23.917Z,6.27
2019-02-27T00:47:53.257Z,6.23
2019-02-27T00:50:21.738Z,6.24
2019-02-27T00:52:51.123Z,6.17
2019-02-27T00:55:19.735Z,6.21
2019-02-27T00:57:47.784Z,6.20
2019-02-27T01:00:16.406Z,6.15
2019-02-27T01:02:44.378Z,6.13
2019-02-27T01:05:12.747Z,6.14
2019-02-27T01:07:40.758Z,6.05
2019-02-27T01:10:11.962Z,6.06
2019-02-27T01:12:38.944Z,6.12
2019-02-27T01:15:07.932Z,6.30
2019-02-27T01:17:37.300Z,6.15
2019-02-27T01:20:05.372Z,6.15
2019-02-27T01:22:33.447Z,6.21
2019-02-27T01:25:02.421Z,6.16
2019-02-27T01:27:30.278Z,6.17
2019-02-27T01:29:58.294Z,6.11
2019-02-27T01:32:26.307Z,6.20
2019-02-27T01:34:54.135Z,6.10
2019-02-27T01:37:21.983Z,6.06
2019-02-27T01:39:49.869Z,6.09
2019-02-27T01:42:17.892Z,6.26
2019-02-27T01:44:46.678Z,6.38
2019-02-27T01:47:15.057Z,6.40
2019-02-27T01:49:43.445Z,6.55
2019-02-27T01:52:11.704Z,6.56
2019-02-27T01:54:39.845Z,6.62
2019-02-27T01:57:07.875Z,6.68
2019-02-27T01:59:36.036Z,6.75
2019-02-27T02:02:04.225Z,6.76
2019-02-27T02:04:32.289Z,6.73
2019-02-27T02:07:00.234Z,6.74
2019-02-27T02:09:34.764Z,6.84
2019-02-27T02:12:08.812Z,6.79
2019-02-27T02:15:08.498Z,6.84
2019-02-27T02:18:13.947Z,6.69
2019-02-27T02:21:11.660Z,6.56
2019-02-27T02:24:29.806Z,6.70
2019-02-27T02:27:11.658Z,6.62
2019-02-27T02:30:15.615Z,6.82
2019-02-27T02:33:11.389Z,6.85
2019-02-27T02:36:17.093Z,6.67
2019-02-27T02:39:19.126Z,6.49
2019-02-27T02:42:30.654Z,6.20
2019-02-27T02:45:32.767Z,6.20
2019-02-27T02:48:32.760Z,6.14
2019-02-27T02:52:04.628Z,6.04
2019-02-27T02:55:11.902Z,6.13
2019-02-27T02:57:47.312Z,6.15
2019-02-27T03:00:40.251Z,6.14
2019-02-27T03:03:37.276Z,6.02
2019-02-27T03:07:13.694Z,6.03
2019-02-27T03:10:24.528Z,5.98
2019-02-27T03:13:23.408Z,5.89
2019-02-27T03:16:15.049Z,5.89
2019-02-27T03:19:18.012Z,5.68
2019-02-27T03:22:03.741Z,5.83
2019-02-27T03:25:25.957Z,5.75
2019-02-27T03:28:21.201Z,6.14
2019-02-27T03:31:19.957Z,6.23
2019-02-27T03:34:53.802Z,6.06
2019-02-27T03:37:37.902Z,5.90
2019-02-27T03:40:34.274Z,5.97
2019-02-27T03:43:45.643Z,5.90
2019-02-27T03:46:43.956Z,5.88
2019-02-27T03:49:39.615Z,5.83
2019-02-27T03:52:55.455Z,5.65
2019-02-27T03:56:00.704Z,5.50
2019-02-27T03:59:42.040Z,5.07
2019-02-27T04:02:44.881Z,4.91
2019-02-27T04:06:09.538Z,5.03
2019-02-27T04:08:57.206Z,4.73
2019-02-27T04:11:25.293Z,4.38
2019-02-27T04:13:53.153Z,4.59
2019-02-27T04:16:21.223Z,4.55
2019-02-27T04:18:49.157Z,4.42
2019-02-27T04:21:17.042Z,4.11
2019-02-27T04:23:48.964Z,4.33
2019-02-27T04:26:14.804Z,4.38
2019-02-27T04:28:42.624Z,4.30
2019-02-27T04:31:10.557Z,4.15
2019-02-27T04:33:38.778Z,4.09
2019-02-27T04:36:06.718Z,3.93
2019-02-27T04:38:34.799Z,3.85
2019-02-27T04:41:02.671Z,3.87
2019-02-27T04:43:32.301Z,3.61
2019-02-27T04:46:00.885Z,3.61
2019-02-27T04:48:29.931Z,3.61
2019-02-27T04:50:58.660Z,3.59
2019-02-27T04:53:31.486Z,3.33
2019-02-27T04:55:56.855Z,3.40
2019-02-27T04:58:24.908Z,3.47
2019-02-27T05:00:53.071Z,3.25
2019-02-27T05:03:21.061Z,3.24
2019-02-27T05:05:49.011Z,3.25
2019-02-27T05:08:17.179Z,3.22
2019-02-27T05:10:45.374Z,3.24
2019-02-27T05:13:13.317Z,3.06
2019-02-27T05:15:41.398Z,2.99
2019-02-27T05:18:10.444Z,2.90
2019-02-27T05:20:38.461Z,2.86
2019-02-27T05:23:06.337Z,2.88
2019-02-27T05:25:34.284Z,2.82
2019-02-27T05:28:02.135Z,2.91
2019-02-27T05:30:31.023Z,2.94
2019-02-27T05:33:02.012Z,2.90
2019-02-27T05:35:28.829Z,2.85
2019-02-27T05:37:56.965Z,2.62
2019-02-27T05:40:25.981Z,2.76
2019-02-27T05:42:54.539Z,2.77
2019-02-27T05:45:22.747Z,2.74
2019-02-27T05:47:50.931Z,2.71
2019-02-27T05:50:18.903Z,2.65
2019-02-27T05:52:48.789Z,2.42
2019-02-27T05:55:16.871Z,2.55
2019-02-27T05:57:44.799Z,2.57
2019-02-27T06:00:15.153Z,2.58
2019-02-27T06:02:45.012Z,2.61
2019-02-27T06:05:13.138Z,2.61
2019-02-27T06:07:41.174Z,2.56
2019-02-27T06:10:11.698Z,2.60
2019-02-27T06:12:40.722Z,2.62
2019-02-27T06:15:11.720Z,2.97
2019-02-27T06:17:43.360Z,3.20
2019-02-27T06:20:09.752Z,3.32
2019-02-27T06:22:37.958Z,3.38
2019-02-27T06:25:07.588Z,3.52
2019-02-27T06:27:37.170Z,3.66
2019-02-27T06:30:06.780Z,3.82
2019-02-27T06:32:35.770Z,4.06
2019-02-27T06:35:04.075Z,4.27
2019-02-27T06:37:32.006Z,4.41
2019-02-27T06:40:00.008Z,4.62
2019-02-27T06:42:28.183Z,4.74
2019-02-27T06:44:56.360Z,4.99
2019-02-27T06:47:24.253Z,5.26
2019-02-27T06:49:52.561Z,5.49
2019-02-27T06:52:20.610Z,5.73
2019-02-27T06:54:51.939Z,6.03
2019-02-27T06:57:18.058Z,6.28
2019-02-27T06:59:45.950Z,6.51
2019-02-27T07:02:13.830Z,6.77
2019-02-27T07:04:41.773Z,7.05
2019-02-27T07:07:09.871Z,7.32
2019-02-27T07:09:38.017Z,7.52
2019-02-27T07:12:07.227Z,7.77
2019-02-27T07:14:36.496Z,8.04
2019-02-27T07:17:05.395Z,8.19
2019-02-27T07:19:33.370Z,8.45
2019-02-27T07:22:01.386Z,8.62
2019-02-27T07:24:30.557Z,8.83
2019-02-27T07:26:59.157Z,9.14
2019-02-27T07:29:28.058Z,9.46
2019-02-27T07:31:57.284Z,9.76
2019-02-27T07:34:28.022Z,10.17
2019-02-27T07:36:55.911Z,10.57
2019-02-27T07:39:23.981Z,10.93
2019-02-27T07:41:51.725Z,11.22
2019-02-27T07:44:19.614Z,11.53
2019-02-27T07:46:47.477Z,11.78
2019-02-27T07:49:15.593Z,12.14
2019-02-27T07:51:43.544Z,12.08
2019-02-27T07:54:11.590Z,12.44
2019-02-27T07:56:39.513Z,12.82
2019-02-27T07:59:07.461Z,12.77
2019-02-27T08:01:43.498Z,13.04
2019-02-27T08:04:05.606Z,13.21
2019-02-27T08:06:35.087Z,13.20
2019-02-27T08:09:04.644Z,13.14
2019-02-27T08:11:33.619Z,13.40
2019-02-27T08:14:04.460Z,13.48
2019-02-27T08:16:32.363Z,13.35
2019-02-27T08:19:00.227Z,13.46
2019-02-27T08:21:28.137Z,13.27
2019-02-27T08:23:56.199Z,12.73
2019-02-27T08:26:24.054Z,12.88
2019-02-27T08:28:51.991Z,12.92
2019-02-27T08:31:19.843Z,12.94
2019-02-27T08:33:47.918Z,12.87
2019-02-27T08:36:16.880Z,13.08
2019-02-27T08:38:45.030Z,13.20
2019-02-27T08:41:13.100Z,13.17
2019-02-27T08:43:41.893Z,13.13
2019-02-27T08:46:09.871Z,12.93
2019-02-27T08:48:37.892Z,13.11
2019-02-27T08:51:08.522Z,12.66
2019-02-27T08:53:35.662Z,13.04
2019-02-27T08:56:03.525Z,13.33
2019-02-27T08:58:33.016Z,13.60
2019-02-27T09:01:01.758Z,13.57
2019-02-27T09:03:29.944Z,13.71
2019-02-27T09:05:57.817Z,14.31
2019-02-27T09:08:25.644Z,13.97
2019-02-27T09:10:53.644Z,13.88
2019-02-27T09:13:21.671Z,14.18
2019-02-27T09:15:49.671Z,14.03
2019-02-27T09:18:17.865Z,14.26
2019-02-27T09:20:45.801Z,14.57
2019-02-27T09:23:14.083Z,14.89
2019-02-27T09:25:42.440Z,15.07
2019-02-27T09:28:10.425Z,15.08
2019-02-27T09:30:38.512Z,15.01
2019-02-27T09:33:06.377Z,14.80
2019-02-27T09:35:38.515Z,15.19
2019-02-27T09:38:04.301Z,15.32
2019-02-27T09:40:32.368Z,15.41
2019-02-27T09:43:00.398Z,15.33
2019-02-27T09:45:29.603Z,15.31
2019-02-27T09:47:59.967Z,15.31
2019-02-27T09:50:48.359Z,15.46
2019-02-27T09:53:16.914Z,15.39
2019-02-27T09:55:44.974Z,15.57
2019-02-27T09:58:13.151Z,15.91
2019-02-27T10:01:04.194Z,16.01
2019-02-27T10:03:32.914Z,16.31
2019-02-27T10:06:00.977Z,16.29
2019-02-27T10:08:28.960Z,16.31
2019-02-27T10:10:57.069Z,16.48
2019-02-27T10:13:25.387Z,16.57
2019-02-27T10:15:53.488Z,16.75
2019-02-27T10:18:22.183Z,16.55
2019-02-27T10:20:50.369Z,16.64
2019-02-27T10:23:18.445Z,16.83
2019-02-27T10:25:46.560Z,16.81
2019-02-27T10:28:14.476Z,17.10
2019-02-27T10:30:42.414Z,17.18
2019-02-27T10:33:11.829Z,17.33
2019-02-27T10:35:39.978Z,17.50
2019-02-27T10:38:09.758Z,17.52
2019-02-27T10:40:37.621Z,17.64
2019-02-27T10:43:05.747Z,17.69
2019-02-27T10:45:33.724Z,17.57
2019-02-27T10:48:01.788Z,17.79
2019-02-27T10:50:29.552Z,17.98
2019-02-27T10:52:57.586Z,18.00
2019-02-27T10:55:26.989Z,18.00
2019-02-27T10:57:55.265Z,18.16
2019-02-27T11:00:26.266Z,18.15
2019-02-27T11:02:54.324Z,18.29
2019-02-27T11:05:22.229Z,18.40
2019-02-27T11:07:52.715Z,18.55
2019-02-27T11:10:21.779Z,18.45
2019-02-27T11:12:50.093Z,18.56
2019-02-27T11:15:18.425Z,18.85
2019-02-27T11:17:46.630Z,18.75
2019-02-27T11:20:20.252Z,18.81
2019-02-27T11:22:44.639Z,18.63
2019-02-27T11:25:15.444Z,18.83
2019-02-27T11:27:43.865Z,19.12
2019-02-27T11:30:16.478Z,19.36
2019-02-27T11:32:44.464Z,19.55
2019-02-27T11:35:13.384Z,19.43
2019-02-27T11:37:41.470Z,19.43
2019-02-27T11:40:11.512Z,19.45
2019-02-27T11:42:39.429Z,19.51
2019-02-27T11:45:07.704Z,19.41
2019-02-27T11:47:35.627Z,19.56
2019-02-27T11:50:04.440Z,19.54
2019-02-27T11:52:32.247Z,19.64
2019-02-27T11:55:00.439Z,19.91
2019-02-27T11:57:30.502Z,20.06
2019-02-27T11:59:58.075Z,20.05
2019-02-27T12:02:29.091Z,20.06
2019-02-27T12:04:56.665Z,20.07
2019-02-27T12:07:24.717Z,20.21
2019-02-27T12:09:52.791Z,20.34
2019-02-27T12:12:23.398Z,20.31
2019-02-27T12:14:50.683Z,20.67
2019-02-27T12:17:18.612Z,20.68
2019-02-27T12:19:46.571Z,20.70
2019-02-27T12:22:14.547Z,20.62
2019-02-27T12:24:42.507Z,20.57
2019-02-27T12:27:25.698Z,20.74
2019-02-27T12:29:40.522Z,20.65
2019-02-27T12:32:08.773Z,20.63
2019-02-27T12:34:37.213Z,20.70
2019-02-27T12:37:05.779Z,20.70
2019-02-27T12:39:33.792Z,20.83
2019-02-27T12:42:04.160Z,20.91
2019-02-27T12:44:31.679Z,20.89
2019-02-27T12:46:59.694Z,20.74
2019-02-27T12:49:27.795Z,20.69
2019-02-27T12:51:55.702Z,20.83
2019-02-27T12:54:23.584Z,21.12
2019-02-27T12:56:51.591Z,21.24
2019-02-27T12:59:19.545Z,21.25
2019-02-27T13:01:50.931Z,21.23
2019-02-27T13:04:19.910Z,20.29
2019-02-27T13:06:47.258Z,20.12
2019-02-27T13:09:15.535Z,19.80
2019-02-27T13:11:44.976Z,19.54
2019-02-27T13:14:13.094Z,19.34
2019-02-27T13:16:40.976Z,19.52
2019-02-27T13:19:11.006Z,20.05
2019-02-27T13:21:39.234Z,20.52
2019-02-27T13:24:07.212Z,20.72
2019-02-27T13:26:35.458Z,20.93
2019-02-27T13:29:03.766Z,20.94
2019-02-27T13:31:31.753Z,20.98
2019-02-27T13:33:59.685Z,21.07
2019-02-27T13:36:27.947Z,21.41
2019-02-27T13:38:55.831Z,21.25
2019-02-27T13:41:25.527Z,21.47
2019-02-27T13:43:53.417Z,21.25
2019-02-27T13:46:22.745Z,21.25
2019-02-27T13:48:50.780Z,21.29
2019-02-27T13:51:18.851Z,20.99
2019-02-27T13:53:46.816Z,21.22
2019-02-27T13:56:16.196Z,21.43
2019-02-27T13:58:44.186Z,21.57
2019-02-27T14:01:12.215Z,21.45
2019-02-27T14:03:40.120Z,21.38
2019-02-27T14:06:09.418Z,21.73
2019-02-27T14:08:37.611Z,21.88
2019-02-27T14:11:05.860Z,22.28
2019-02-27T14:13:34.237Z,22.25
2019-02-27T14:16:02.299Z,22.65
2019-02-27T14:18:30.559Z,22.35
2019-02-27T14:20:58.985Z,22.43
2019-02-27T14:23:28.700Z,22.86
2019-02-27T14:25:56.779Z,23.25
2019-02-27T14:28:24.739Z,23.26
2019-02-27T14:30:52.520Z,23.21
2019-02-27T14:33:20.783Z,22.92
2019-02-27T14:35:48.936Z,22.93
2019-02-27T14:38:16.835Z,22.70
2019-02-27T14:40:44.802Z,22.56
2019-02-27T14:43:13.047Z,22.26
2019-02-27T14:45:41.131Z,21.95
2019-02-27T14:48:10.020Z,21.74
2019-02-27T14:50:38.075Z,21.47
2019-02-27T14:53:06.073Z,21.27
2019-02-27T14:55:36.155Z,21.09
2019-02-27T14:58:03.899Z,20.66
2019-02-27T15:00:32.140Z,20.34
2019-02-27T15:03:01.219Z,20.48
2019-02-27T15:05:29.296Z,20.50
2019-02-27T15:07:57.373Z,20.47
2019-02-27T15:10:25.780Z,20.37
2019-02-27T15:12:55.513Z,20.24
2019-02-27T15:15:25.876Z,19.97
2019-02-27T15:17:54.274Z,19.97
2019-02-27T15:20:24.401Z,20.03
2019-02-27T15:22:52.810Z,20.00
2019-02-27T15:25:21.669Z,20.02
2019-02-27T15:27:49.519Z,19.78
2019-02-27T15:30:19.464Z,19.83
2019-02-27T15:32:47.497Z,19.66
2019-02-27T15:35:15.627Z,19.38
2019-02-27T15:37:43.749Z,19.23
2019-02-27T15:40:13.316Z,18.85
2019-02-27T15:42:42.719Z,19.09
2019-02-27T15:45:11.765Z,19.08
2019-02-27T15:47:39.754Z,18.87
2019-02-27T15:50:08.722Z,18.87
2019-02-27T15:52:38.136Z,18.82
2019-02-27T15:55:06.836Z,18.78
2019-02-27T15:57:35.195Z,18.79
2019-02-27T16:00:03.427Z,18.70
2019-02-27T16:02:34.004Z,18.57
2019-02-27T16:05:03.371Z,18.42
2019-02-27T16:07:31.334Z,18.26
2019-02-27T16:09:59.086Z,17.74
2019-02-27T16:12:26.985Z,17.66
2019-02-27T16:14:54.885Z,17.65
2019-02-27T16:17:22.909Z,17.51
2019-02-27T16:19:50.706Z,17.36
2019-02-27T16:22:18.571Z,17.16
2019-02-27T16:24:46.752Z,16.99
2019-02-27T16:27:14.636Z,16.81
2019-02-27T16:29:42.825Z,16.64
2019-02-27T16:32:13.238Z,16.48
2019-02-27T16:34:40.839Z,16.28
2019-02-27T16:37:08.838Z,15.93
2019-02-27T16:39:41.237Z,15.60
2019-02-27T16:42:06.533Z,15.23
2019-02-27T16:44:34.561Z,15.14
2019-02-27T16:47:03.598Z,15.00
2019-02-27T16:49:31.976Z,14.89
2019-02-27T16:52:00.290Z,14.78
2019-02-27T16:54:28.542Z,14.61
2019-02-27T16:56:58.144Z,14.36
2019-02-27T16:59:26.359Z,14.23
2019-02-27T17:01:54.398Z,13.99
2019-02-27T17:04:22.546Z,13.81
2019-02-27T17:06:52.295Z,13.76
2019-02-27T17:09:20.511Z,13.73
2019-02-27T17:11:48.674Z,13.60
2019-02-27T17:14:16.758Z,13.53
2019-02-27T17:16:45.515Z,13.35
2019-02-27T17:19:14.032Z,13.10
2019-02-27T17:21:41.906Z,12.80
2019-02-27T17:24:10.300Z,12.52
2019-02-27T17:26:39.041Z,12.30
2019-02-27T17:29:08.029Z,12.10
2019-02-27T17:31:36.256Z,11.80
2019-02-27T17:34:04.575Z,11.62
2019-02-27T17:36:32.844Z,11.40
2019-02-27T17:39:00.879Z,11.19
2019-02-27T17:41:28.758Z,11.01
2019-02-27T17:43:57.058Z,10.81
2019-02-27T17:46:25.445Z,10.70
2019-02-27T17:48:53.630Z,10.54
2019-02-27T17:51:21.657Z,10.37
2019-02-27T17:53:49.865Z,10.20
2019-02-27T17:56:17.823Z,10.09
2019-02-27T17:58:46.830Z,10.01
2019-02-27T18:01:17.942Z,9.87
2019-02-27T18:03:46.133Z,9.83
2019-02-27T18:06:15.131Z,9.84
2019-02-27T18:08:43.264Z,9.74
2019-02-27T18:11:12.326Z,9.67
2019-02-27T18:13:41.011Z,9.56
2019-02-27T18:16:08.933Z,9.44
2019-02-27T18:18:37.065Z,9.37
2019-02-27T18:21:04.975Z,9.32
2019-02-27T18:23:32.804Z,9.25
2019-02-27T18:26:00.832Z,9.12
2019-02-27T18:28:32.665Z,8.97
2019-02-27T18:30:59.000Z,8.84
2019-02-27T18:33:27.033Z,8.74
2019-02-27T18:35:55.050Z,8.68
2019-02-27T18:38:27.595Z,8.54
2019-02-27T18:40:53.548Z,8.44
2019-02-27T18:43:21.676Z,8.36
2019-02-27T18:45:50.833Z,8.27
2019-02-27T18:48:19.940Z,8.17
2019-02-27T18:50:48.108Z,8.12
2019-02-27T18:53:16.091Z,8.09
2019-02-27T18:55:44.210Z,8.00
2019-02-27T18:58:12.799Z,7.89
2019-02-27T19:00:41.023Z,7.82
2019-02-27T19:03:08.914Z,7.71
2019-02-27T19:05:38.149Z,7.61
2019-02-27T19:08:07.126Z,7.46
2019-02-27T19:10:34.944Z,7.44
2019-02-27T19:13:03.200Z,7.35
2019-02-27T19:15:31.441Z,7.31
2019-02-27T19:17:59.922Z,7.21
2019-02-27T19:20:29.102Z,7.23
2019-02-27T19:22:57.330Z,7.16
2019-02-27T19:25:25.972Z,7.07
2019-02-27T19:27:54.303Z,7.03
2019-02-27T19:30:22.403Z,6.93
2019-02-27T19:32:50.400Z,6.84
2019-02-27T19:35:22.369Z,6.76
2019-02-27T19:37:50.610Z,6.75
2019-02-27T19:40:19.084Z,6.75
2019-02-27T19:42:48.898Z,6.72
2019-02-27T19:45:18.781Z,6.76
2019-02-27T19:47:49.683Z,6.72
2019-02-27T19:50:18.644Z,6.57
2019-02-27T19:52:46.630Z,6.46
2019-02-27T19:55:14.855Z,6.42
2019-02-27T19:57:44.428Z,6.29
2019-02-27T20:00:14.675Z,6.28
2019-02-27T20:02:42.749Z,6.22
2019-02-27T20:05:11.065Z,6.22
2019-02-27T20:07:39.104Z,6.17
2019-02-27T20:10:09.390Z,6.12
2019-02-27T20:12:37.582Z,6.06
2019-02-27T20:15:08.294Z,5.95
2019-02-27T20:17:37.671Z,5.94
2019-02-27T20:20:06.121Z,5.94
2019-02-27T20:22:33.983Z,5.93
2019-02-27T20:25:01.985Z,5.91
2019-02-27T20:27:32.099Z,5.87
2019-02-27T20:30:00.570Z,5.76
2019-02-27T20:32:29.256Z,5.69
2019-02-27T20:34:57.446Z,5.64
2019-02-27T20:37:25.607Z,5.56
2019-02-27T20:39:58.380Z,5.51
2019-02-27T20:42:23.829Z,5.48
2019-02-27T20:44:52.735Z,5.43
2019-02-27T20:47:21.870Z,5.38
2019-02-27T20:49:50.747Z,5.34
2019-02-27T20:52:19.059Z,5.27
2019-02-27T20:54:47.177Z,5.21
2019-02-27T20:57:15.391Z,5.10
2019-02-27T20:59:43.527Z,5.01
2019-02-27T21:02:11.737Z,4.95
2019-02-27T21:04:40.502Z,4.91
2019-02-27T21:07:08.756Z,4.85
2019-02-27T21:09:37.109Z,4.81
2019-02-27T21:12:07.257Z,4.76
2019-02-27T21:14:35.203Z,4.79
2019-02-27T21:17:03.594Z,4.67
2019-02-27T21:19:33.838Z,4.63
2019-02-27T21:22:01.926Z,4.61
2019-02-27T21:24:30.116Z,4.57
2019-02-27T21:26:58.320Z,4.51
2019-02-27T21:29:26.712Z,4.42
2019-02-27T21:31:54.987Z,4.35
2019-02-27T21:34:23.148Z,4.33
2019-02-27T21:36:51.310Z,4.32
2019-02-27T21:39:22.472Z,4.30
2019-02-27T21:41:49.847Z,4.25
2019-02-27T21:44:25.525Z,4.25
2019-02-27T21:46:48.422Z,4.20
2019-02-27T21:49:17.031Z,4.20
2019-02-27T21:51:48.096Z,4.17
2019-02-27T21:54:15.505Z,4.12
2019-02-27T21:56:43.697Z,4.09
2019-02-27T21:59:11.948Z,4.04
2019-02-27T22:01:40.458Z,4.03
2019-02-27T22:04:09.751Z,4.03
2019-02-27T22:06:40.006Z,4.03
2019-02-27T22:09:10.145Z,3.99
2019-02-27T22:11:38.537Z,3.97
2019-02-27T22:14:06.904Z,3.90
2019-02-27T22:16:35.858Z,3.90
2019-02-27T22:19:04.259Z,3.85
2019-02-27T22:21:34.214Z,3.80
2019-02-27T22:24:02.851Z,3.77
2019-02-27T22:26:34.153Z,3.70
2019-02-27T22:29:01.911Z,3.65
2019-02-27T22:31:30.509Z,3.60
2019-02-27T22:33:58.933Z,3.57
2019-02-27T22:36:27.424Z,3.50
2019-02-27T22:38:59.845Z,3.48
2019-02-27T22:41:25.924Z,3.43
2019-02-27T22:43:55.738Z,3.46
2019-02-27T22:46:24.124Z,3.40
2019-02-27T22:48:52.366Z,3.30
2019-02-27T22:51:20.638Z,3.26
2019-02-27T22:53:48.871Z,3.19
2019-02-27T22:56:17.225Z,3.13
2019-02-27T22:58:45.639Z,3.05
2019-02-27T23:01:28.814Z,3.05
2019-02-27T23:04:06.222Z,3.01
2019-02-27T23:06:34.467Z,2.97
2019-02-27T23:09:04.424Z,2.93
2019-02-27T23:11:34.180Z,2.92
2019-02-27T23:14:03.350Z,2.87
2019-02-27T23:16:31.365Z,2.84
2019-02-27T23:19:03.005Z,2.81
2019-02-27T23:21:32.058Z,2.83
2019-02-27T23:24:00.024Z,2.81
2019-02-27T23:26:27.994Z,2.81
2019-02-27T23:28:55.868Z,2.80
2019-02-27T23:31:23.702Z,2.79
2019-02-27T23:33:51.553Z,2.72
2019-02-27T23:36:22.144Z,2.65
2019-02-27T23:38:49.726Z,2.64
2019-02-27T23:41:22.802Z,2.72
2019-02-27T23:43:49.471Z,2.67
2019-02-27T23:46:18.629Z,2.62
2019-02-27T23:48:47.242Z,2.58
2019-02-27T23:51:16.749Z,2.49
2019-02-27T23:53:44.916Z,2.40
2019-02-27T23:56:12.892Z,2.32
2019-02-27T23:58:41.006Z,2.29
